»·PEaware :: DAL86 KLAS-KPHX

DAL86 :: KLAS-KPHX

FLIGHT INFORMATION

Flight Status: Arrived
Operator:
Delta Air Lines
More flights by this operator :: More flights under this callsign
Pilot: Ernesto F. (37009)
Aircraft: BOEING 737-900
(B739)
More flights by this aircraft type
Origin: KLAS Harry Reid Intl
United States
Destination: KPHX Phoenix Sky Harbor Intl
United States
More flights between these airports :: More routes between these airports
Route: RASLR3 ZAYNE WOTRO BRUSR1
File this flight plan on PilotEdge
Remarks: RMK / SIMBRIEF
Altitude:
(Current/Filed)
29,000ft
Speed:
(Current/Filed)
465kts
Departed: 19-Jun-23 01:28 PM
Arrived: 19-Jun-23 02:18 PM
Distance/Time
Traveled:
222nm/0:50
Distance/Time
To Go:
Arrived

Flight Plot

Page will automatically refresh every two minutes.

Flight plan parsing failed; only flown route is shown


Map Options




Map Legend


Flown Route
Filed Route
Departure Airport
Arrival Airport
Navaid (VOR, NDB)
Fix

Horizontal Profiles

Position Reports

Time Latitude Longitude Heading Altitude Ground
Speed
19-Jun-23 13:17 36.080165 -115.132296 266 2072ft 0kts
19-Jun-23 13:18 36.080165 -115.132296 266 2072ft 0kts
19-Jun-23 13:19 36.080165 -115.132296 266 2072ft 0kts
19-Jun-23 13:20 36.080165 -115.132296 266 2072ft 0kts
19-Jun-23 13:21 36.080000 -115.132598 205 2073ft 0kts
19-Jun-23 13:22 36.079696 -115.132416 168 2072ft 0kts
19-Jun-23 13:23 36.077550 -115.132304 90 2071ft 5kts
19-Jun-23 13:24 36.077572 -115.126520 85 2048ft 17kts
19-Jun-23 13:25 36.077553 -115.122953 88 2031ft 26kts
19-Jun-23 13:26 36.076430 -115.122171 272 2030ft 26kts
19-Jun-23 13:27 36.077249 -115.165518 268 3092ft 171kts
19-Jun-23 13:28 36.071997 -115.231949 256 4362ft 222kts
19-Jun-23 13:29 36.025367 -115.278923 203 6092ft 250kts
19-Jun-23 13:30 35.959353 -115.257827 144 8742ft 288kts
19-Jun-23 13:31 35.901297 -115.185091 126 10616ft 334kts
19-Jun-23 13:32 35.856718 -115.077769 110 11104ft 403kts
19-Jun-23 13:33 35.825258 -114.941190 110 12600ft 421kts
19-Jun-23 13:34 35.791390 -114.800895 110 14046ft 434kts
19-Jun-23 13:36 35.756194 -114.656894 110 15359ft 444kts
19-Jun-23 13:37 35.720261 -114.510555 110 16677ft 451kts
19-Jun-23 13:38 35.661637 -114.379140 144 17851ft 439kts
19-Jun-23 13:39 35.567429 -114.281451 143 18849ft 446kts
19-Jun-23 13:40 35.472670 -114.181798 143 19859ft 452kts
19-Jun-23 13:41 35.376579 -114.080898 143 20784ft 457kts
19-Jun-23 13:42 35.294793 -113.962239 108 21605ft 482kts
19-Jun-23 13:43 35.262990 -113.801768 108 22273ft 488kts
19-Jun-23 13:44 35.229340 -113.640391 108 22915ft 491kts
19-Jun-23 13:45 35.198526 -113.476979 107 23434ft 496kts
19-Jun-23 13:46 35.165047 -113.313283 119 23895ft 491kts
19-Jun-23 13:47 35.090105 -113.177156 129 24347ft 486kts
19-Jun-23 13:48 35.014445 -113.039504 129 24768ft 484kts
19-Jun-23 13:49 34.939308 -112.904132 129 24842ft 483kts
19-Jun-23 13:50 34.874649 -112.787934 130 24837ft 484kts
19-Jun-23 13:51 34.798914 -112.652268 130 24955ft 485kts
19-Jun-23 13:52 34.722920 -112.516623 130 25083ft 485kts
19-Jun-23 13:53 34.627968 -112.406533 147 23628ft 468kts
19-Jun-23 13:54 34.529751 -112.311338 146 21642ft 425kts
19-Jun-23 13:55 34.442179 -112.230158 163 20790ft 365kts
19-Jun-23 13:56 34.345914 -112.204066 173 18882ft 352kts
19-Jun-23 13:57 34.251255 -112.179669 172 17163ft 342kts
19-Jun-23 13:58 34.159544 -112.155986 172 15500ft 332kts
19-Jun-23 13:59 34.073106 -112.132709 167 14570ft 308kts
19-Jun-23 14:00 33.992476 -112.099165 165 13084ft 306kts
19-Jun-23 14:01 33.967102 -112.088688 165 12613ft 304kts
19-Jun-23 14:02 33.967102 -112.088688 165 12613ft 304kts
19-Jun-23 14:03 33.899041 -112.060965 165 11370ft 290kts
19-Jun-23 14:04 33.823616 -112.030357 166 10178ft 280kts
19-Jun-23 14:05 33.751588 -112.001178 165 9050ft 267kts
19-Jun-23 14:05 33.693845 -111.977852 165 8506ft 263kts
19-Jun-23 14:07 33.615483 -111.946190 165 7791ft 249kts
19-Jun-23 14:08 33.548840 -111.919077 159 7188ft 249kts
19-Jun-23 14:09 33.527364 -111.844899 92 6374ft 259kts
19-Jun-23 14:09 33.528393 -111.770501 91 4895ft 261kts
19-Jun-23 14:10 33.522997 -111.688508 132 4018ft 234kts
19-Jun-23 14:11 33.474818 -111.700023 242 4006ft 207kts
19-Jun-23 14:13 33.449136 -111.770517 257 3737ft 199kts
19-Jun-23 14:14 33.439047 -111.831671 256 3223ft 176kts
19-Jun-23 14:14 33.430440 -111.879571 256 3052ft 173kts
19-Jun-23 14:15 33.428847 -111.934977 268 2259ft 164kts
19-Jun-23 14:16 33.428821 -111.984724 268 1442ft 131kts
19-Jun-23 14:18 33.428543 -112.021223 234 1121ft 21kts
19-Jun-23 14:18 33.427165 -112.021124 180 1131ft 15kts
19-Jun-23 14:19 33.425880 -112.020542 79 1130ft 0kts
19-Jun-23 14:20 33.425880 -112.020542 79 1130ft 0kts

Navigation Log

Ident Type
Flight plan parsing failed, navigation log unavailable